Terminal Aerodrome Forecast
Issued by NWS Wilmington, OH

Current Version | Previous Version | Text Only | Print | Product List | Glossary Off
Versions: 1 2 3 4 5 6 7 8 9 10 11 12 13 14 15 16

000
FTUS41 KILN 242300
TAFCMH
TAF
KCMH 242334Z 2500/2524 23020G33KT P6SM -RA SCT024 BKN050 OVC070
     FM250400 25020G30KT P6SM VCSH OVC015
     FM250800 24013G24KT P6SM VCSH OVC020
     FM251300 24012KT P6SM OVC020=

USA.gov is the U.S. government's official web portal to all federal, state and local government web resources and services.